Time;durP1;ratioP1;P1;durP2;ratioP2;P2;SDS_P1;SDS_P2;PMS_P1;PMS_P2;Temp;Humidity;BMP_temperature;BMP_pressure;BME280_temperature;BME280_humidity;BME280_pressure;Samples;Min_cycle;Max_cycle;Signal;HPM_P1;HPM_P2
2023/01/12 03:02:18;;;;;;;9.53;8.83;;;6.70;99.90;;;;;;5295981;23;20227;-78
2023/01/12 03:04:45;;;;;;;10.10;9.30;;;6.60;99.90;;;;;;5000034;28;20206;-78
2023/01/12 03:07:34;;;;;;;9.77;9.00;;;6.60;99.90;;;;;;5001412;28;20564;-77
2023/01/12 03:10:16;;;;;;;10.10;9.30;;;6.50;99.90;;;;;;5000064;28;20831;-77
2023/01/12 03:12:44;;;;;;;10.17;9.20;;;6.50;99.90;;;;;;4976488;28;20639;-78
2023/01/12 03:15:15;;;;;;;10.00;9.10;;;6.50;99.90;;;;;;4985413;28;20254;-78
2023/01/12 03:17:47;;;;;;;9.77;8.90;;;6.40;99.90;;;;;;4974636;28;20575;-78
2023/01/12 03:20:19;;;;;;;10.13;9.33;;;6.40;99.90;;;;;;4987041;28;20242;-78
2023/01/12 03:22:49;;;;;;;10.07;9.37;;;6.40;99.90;;;;;;4980069;28;20274;-76
2023/01/12 03:25:17;;;;;;;10.43;9.50;;;6.50;99.90;;;;;;4984400;28;20208;-78
2023/01/12 03:27:48;;;;;;;10.10;9.17;;;6.50;99.90;;;;;;4983832;28;20196;-76
2023/01/12 03:30:19;;;;;;;9.73;9.13;;;6.40;99.90;;;;;;4979007;28;20263;-76
2023/01/12 03:32:48;;;;;;;9.50;8.90;;;6.40;99.90;;;;;;4980245;28;20240;-77
2023/01/12 03:35:15;;;;;;;10.43;9.43;;;6.40;99.90;;;;;;4984021;28;20199;-77
2023/01/12 03:37:47;;;;;;;9.93;9.10;;;6.40;99.90;;;;;;4982740;28;20247;-77
2023/01/12 03:40:20;;;;;;;9.27;8.67;;;6.30;99.90;;;;;;4982887;28;20623;-76
2023/01/12 03:42:52;;;;;;;10.43;9.53;;;6.30;99.90;;;;;;4983394;28;20224;-78
2023/01/12 03:45:26;;;;;;;10.70;9.90;;;6.30;99.90;;;;;;4983562;28;20207;-77
2023/01/12 03:48:01;;;;;;;10.97;10.10;;;6.20;99.90;;;;;;4983699;28;20239;-78
2023/01/12 03:50:36;;;;;;;10.60;9.50;;;6.20;99.90;;;;;;4966360;28;20234;-78
2023/01/12 03:53:06;;;;;;;10.30;9.50;;;6.10;99.90;;;;;;4987289;28;20274;-79
2023/01/12 03:55:35;;;;;;;10.70;9.80;;;6.10;99.90;;;;;;4979591;28;20266;-79
2023/01/12 03:58:02;;;;;;;11.83;9.90;;;6.10;99.90;;;;;;4982527;28;20200;-79
2023/01/12 04:00:30;;;;;;;11.00;10.20;;;6.20;99.90;;;;;;4973687;28;20199;-79
2023/01/12 04:03:09;;;;;;;9.60;9.00;;;6.10;99.90;;;;;;4975517;28;20254;-78
2023/01/12 04:05:36;;;;;;;9.90;9.10;;;6.10;99.90;;;;;;4979835;28;20206;-77
2023/01/12 04:08:02;;;;;;;9.97;9.10;;;6.10;99.90;;;;;;4977867;28;20278;-78
2023/01/12 04:10:29;;;;;;;11.20;10.20;;;6.10;99.90;;;;;;4982966;28;20198;-78
2023/01/12 04:12:55;;;;;;;10.90;10.00;;;6.10;99.90;;;;;;4973463;28;20294;-79
2023/01/12 04:15:22;;;;;;;11.77;10.90;;;6.10;99.90;;;;;;4978962;28;20234;-79
2023/01/12 04:17:49;;;;;;;10.20;9.23;;;6.10;99.90;;;;;;4973248;28;20208;-80
2023/01/12 04:20:17;;;;;;;9.90;9.17;;;6.10;99.90;;;;;;4974826;28;20223;-79
2023/01/12 04:22:44;;;;;;;10.30;9.40;;;6.10;99.90;;;;;;4981701;28;20239;-79
2023/01/12 04:25:12;;;;;;;10.57;9.53;;;6.20;99.90;;;;;;4987932;28;20195;-80
2023/01/12 04:27:42;;;;;;;10.03;9.23;;;6.20;99.90;;;;;;4981644;28;20207;-80
2023/01/12 04:30:10;;;;;;;9.63;9.00;;;6.20;99.90;;;;;;4979700;28;20206;-80
2023/01/12 04:32:37;;;;;;;10.60;9.50;;;6.30;99.90;;;;;;4982637;28;20243;-81
2023/01/12 04:35:05;;;;;;;10.07;9.27;;;6.40;99.90;;;;;;4983129;28;20223;-78
2023/01/12 04:37:33;;;;;;;10.23;9.27;;;6.40;99.90;;;;;;4982674;28;20233;-79
2023/01/12 04:40:00;;;;;;;11.57;9.70;;;6.40;99.90;;;;;;4982781;28;20192;-78
2023/01/12 04:45:12;;;;;;;11.13;10.17;;;6.50;99.90;;;;;;4982991;28;20224;-79
2023/01/12 04:47:39;;;;;;;9.90;9.30;;;6.60;99.90;;;;;;4979691;28;20664;-79
2023/01/12 04:50:07;;;;;;;11.10;9.90;;;6.60;99.90;;;;;;4984844;28;20240;-79
2023/01/12 04:52:36;;;;;;;10.63;9.73;;;6.60;99.90;;;;;;4980932;28;20246;-78
2023/01/12 04:55:03;;;;;;;10.70;9.70;;;6.70;99.90;;;;;;4980745;28;20192;-77
2023/01/12 04:57:30;;;;;;;11.07;9.80;;;6.60;99.90;;;;;;4984238;28;20253;-78
2023/01/12 04:59:57;;;;;;;11.17;9.90;;;6.70;99.90;;;;;;4980036;28;20278;-78
2023/01/12 05:02:24;;;;;;;10.57;9.67;;;6.70;99.90;;;;;;4981993;28;20283;-78
2023/01/12 05:04:50;;;;;;;10.57;9.77;;;6.70;99.90;;;;;;4979812;28;20231;-79
2023/01/12 05:07:17;;;;;;;10.00;9.30;;;6.80;99.90;;;;;;4981872;28;20277;-78
2023/01/12 05:12:30;;;;;;;10.93;10.07;;;6.80;99.90;;;;;;4972767;28;20232;-79
2023/01/12 05:14:57;;;;;;;11.00;9.90;;;6.80;99.90;;;;;;4979614;28;20195;-79
2023/01/12 05:17:23;;;;;;;11.43;10.30;;;6.80;99.90;;;;;;4981273;28;20198;-79
2023/01/12 05:19:50;;;;;;;10.37;9.63;;;6.80;99.90;;;;;;4980618;28;20189;-77
2023/01/12 05:22:17;;;;;;;11.20;10.17;;;6.80;99.90;;;;;;4984012;28;20220;-77
2023/01/12 05:24:44;;;;;;;11.47;9.63;;;6.90;99.90;;;;;;4982720;28;20243;-78
2023/01/12 05:27:12;;;;;;;10.33;9.40;;;6.90;99.90;;;;;;4984913;28;20620;-78
2023/01/12 05:29:39;;;;;;;10.87;10.00;;;6.90;99.90;;;;;;4979897;28;20241;-77
2023/01/12 05:32:05;;;;;;;11.63;10.30;;;6.90;99.90;;;;;;4978583;28;20346;-78
2023/01/12 05:34:32;;;;;;;11.83;10.63;;;6.90;99.90;;;;;;4981114;28;20207;-78
2023/01/12 05:36:59;;;;;;;11.00;10.10;;;6.90;99.90;;;;;;4980611;28;20208;-79
2023/01/12 05:39:26;;;;;;;11.57;10.33;;;7.00;99.90;;;;;;4981793;28;20232;-78
2023/01/12 05:44:38;;;;;;;13.23;12.13;;;7.00;99.90;;;;;;4973494;28;20258;-77
2023/01/12 05:47:05;;;;;;;11.17;10.37;;;7.00;99.90;;;;;;4978001;28;20192;-78
2023/01/12 05:49:32;;;;;;;11.90;10.90;;;7.00;99.90;;;;;;4983463;28;20266;-79
2023/01/12 05:51:58;;;;;;;11.37;10.27;;;7.10;99.90;;;;;;4980336;28;20223;-78
2023/01/12 05:54:25;;;;;;;12.27;11.07;;;7.10;99.90;;;;;;4983952;28;20215;-79
2023/01/12 05:56:54;;;;;;;11.10;10.30;;;7.10;99.90;;;;;;4981917;28;20197;-78
2023/01/12 05:59:21;;;;;;;11.80;10.80;;;7.10;99.90;;;;;;4981980;28;20196;-78
2023/01/12 06:01:49;;;;;;;11.50;10.53;;;7.20;99.90;;;;;;4979548;28;20232;-78
2023/01/12 06:04:16;;;;;;;11.23;10.30;;;7.20;99.90;;;;;;4983816;28;20259;-78
2023/01/12 06:06:42;;;;;;;11.30;10.40;;;7.20;99.90;;;;;;4979240;28;20661;-77
2023/01/12 06:09:09;;;;;;;11.27;10.27;;;7.20;99.90;;;;;;4977325;28;20658;-78
2023/01/12 06:14:20;;;;;;;11.30;10.30;;;7.20;99.90;;;;;;4979379;28;20220;-77
2023/01/12 06:16:49;;;;;;;11.60;10.40;;;7.20;99.90;;;;;;4979153;28;20201;-78
2023/01/12 06:19:15;;;;;;;11.53;10.40;;;7.20;99.90;;;;;;4982688;28;20682;-78
2023/01/12 06:21:42;;;;;;;11.53;10.63;;;7.20;99.90;;;;;;4979789;28;20255;-77
2023/01/12 06:24:09;;;;;;;11.57;10.40;;;7.20;99.90;;;;;;4985233;28;20676;-77
2023/01/12 06:26:36;;;;;;;11.67;10.40;;;7.20;99.90;;;;;;4985022;28;20647;-79
2023/01/12 06:29:05;;;;;;;11.17;10.20;;;7.20;99.90;;;;;;4981147;28;20198;-79
2023/01/12 06:31:33;;;;;;;11.37;10.33;;;7.20;99.90;;;;;;4987762;28;20762;-78
2023/01/12 06:34:01;;;;;;;11.60;10.50;;;7.20;99.90;;;;;;4984941;28;20713;-80
2023/01/12 06:36:28;;;;;;;12.10;10.80;;;7.20;99.90;;;;;;4973541;28;20215;-79
2023/01/12 06:38:54;;;;;;;11.43;10.40;;;7.20;99.90;;;;;;4986168;28;20260;-77
2023/01/12 06:44:06;;;;;;;10.97;9.97;;;7.20;99.90;;;;;;4983110;28;20185;-79
2023/01/12 06:46:32;;;;;;;11.37;10.27;;;7.20;99.90;;;;;;4984683;28;20296;-79
2023/01/12 06:49:01;;;;;;;14.07;11.00;;;7.20;99.90;;;;;;4986672;28;20201;-77
2023/01/12 06:51:27;;;;;;;10.60;9.67;;;7.20;99.90;;;;;;4971707;28;20224;-78
2023/01/12 06:53:54;;;;;;;11.73;10.77;;;7.20;99.90;;;;;;4982679;28;20212;-79
2023/01/12 06:56:21;;;;;;;12.07;10.80;;;7.20;99.90;;;;;;4987303;28;20197;-83
2023/01/12 06:58:48;;;;;;;11.37;10.37;;;7.30;99.90;;;;;;4987127;28;20200;-80
2023/01/12 07:01:15;;;;;;;11.60;10.50;;;7.30;99.90;;;;;;4985734;28;20236;-81
2023/01/12 07:03:42;;;;;;;10.73;9.90;;;7.30;99.90;;;;;;4983481;28;20303;-81
2023/01/12 07:06:10;;;;;;;11.27;10.23;;;7.30;99.90;;;;;;4980843;28;20232;-81
2023/01/12 07:08:37;;;;;;;12.00;9.40;;;7.40;99.90;;;;;;4985497;28;20259;-78
2023/01/12 07:11:06;;;;;;;10.70;9.60;;;7.40;99.90;;;;;;4984162;28;20284;-78
2023/01/12 07:13:34;;;;;;;10.57;9.70;;;7.40;99.90;;;;;;4983717;28;20219;-79
2023/01/12 07:16:01;;;;;;;10.77;9.73;;;7.40;99.90;;;;;;4984238;28;20205;-79
2023/01/12 07:18:29;;;;;;;10.43;9.53;;;7.40;99.90;;;;;;4983076;28;20260;-77
2023/01/12 07:20:56;;;;;;;10.37;9.63;;;7.50;99.90;;;;;;4983726;28;20221;-79
2023/01/12 07:23:24;;;;;;;10.77;9.77;;;7.40;99.90;;;;;;4988496;28;20200;-79
2023/01/12 07:25:51;;;;;;;10.00;9.30;;;7.50;99.90;;;;;;4985037;28;20282;-78
2023/01/12 07:28:18;;;;;;;10.00;9.10;;;7.50;99.90;;;;;;4981087;28;20292;-79
2023/01/12 07:30:45;;;;;;;10.47;9.50;;;7.50;99.90;;;;;;4980695;28;20251;-78
2023/01/12 07:33:13;;;;;;;10.63;9.73;;;7.50;99.90;;;;;;4984790;28;20214;-80
2023/01/12 07:35:40;;;;;;;10.83;10.03;;;7.60;99.90;;;;;;4985889;28;20199;-79
2023/01/12 07:38:07;;;;;;;10.40;9.60;;;7.60;99.90;;;;;;4983336;28;20289;-79
2023/01/12 07:40:36;;;;;;;10.20;9.30;;;7.70;99.90;;;;;;4985524;28;20210;-78
2023/01/12 07:43:04;;;;;;;10.40;9.50;;;7.70;99.90;;;;;;4984979;28;20203;-78
2023/01/12 07:45:31;;;;;;;10.63;9.77;;;7.70;99.90;;;;;;4980998;28;20228;-78
2023/01/12 07:47:58;;;;;;;11.33;10.20;;;7.80;99.90;;;;;;4977171;28;20245;-78
2023/01/12 07:50:27;;;;;;;10.70;9.80;;;7.80;99.90;;;;;;4981654;28;20248;-78
2023/01/12 07:52:54;;;;;;;10.37;9.57;;;7.90;99.90;;;;;;4982275;28;20280;-78
2023/01/12 07:55:21;;;;;;;10.97;10.00;;;7.90;99.90;;;;;;4982444;28;20210;-79
2023/01/12 07:57:55;;;;;;;11.23;10.33;;;7.90;99.90;;;;;;4978796;28;20233;-79
2023/01/12 08:00:23;;;;;;;11.50;10.53;;;8.00;99.90;;;;;;4980449;28;20693;-79
2023/01/12 08:02:51;;;;;;;10.47;9.70;;;8.10;99.90;;;;;;4982828;28;20213;-79
2023/01/12 08:05:18;;;;;;;10.60;9.73;;;8.10;99.90;;;;;;4978858;28;20202;-78
2023/01/12 08:07:45;;;;;;;10.60;9.57;;;8.20;99.90;;;;;;4986259;28;20656;-78
2023/01/12 08:10:13;;;;;;;11.20;10.30;;;8.20;99.90;;;;;;4981176;28;20231;-78
2023/01/12 08:12:41;;;;;;;11.83;10.60;;;8.30;99.90;;;;;;4982550;28;20251;-79
2023/01/12 08:15:11;;;;;;;11.40;10.40;;;8.30;99.90;;;;;;4982511;28;20201;-79
2023/01/12 08:17:45;;;;;;;12.20;10.60;;;8.30;99.90;;;;;;4982628;28;20198;-78
2023/01/12 08:20:17;;;;;;;10.50;9.80;;;8.30;99.90;;;;;;4980992;28;20255;-79
2023/01/12 08:22:47;;;;;;;11.37;10.60;;;8.40;99.90;;;;;;4982621;28;20279;-80
2023/01/12 08:25:17;;;;;;;10.80;10.10;;;8.40;99.90;;;;;;4979260;28;20205;-80
2023/01/12 08:27:47;;;;;;;10.77;9.87;;;8.50;99.90;;;;;;4987317;28;20626;-80
2023/01/12 08:30:20;;;;;;;11.57;10.63;;;8.50;99.90;;;;;;4981788;28;20205;-80
2023/01/12 08:32:47;;;;;;;11.17;10.37;;;8.50;99.90;;;;;;4984795;28;20279;-79
2023/01/12 08:35:17;;;;;;;10.50;9.80;;;8.50;99.90;;;;;;4996304;28;20190;-79
2023/01/12 08:37:43;;;;;;;10.00;9.30;;;8.60;99.90;;;;;;4993587;28;20249;-79
2023/01/12 08:40:11;;;;;;;10.57;9.77;;;8.70;99.90;;;;;;4988980;28;20253;-78
2023/01/12 08:42:38;;;;;;;10.33;9.53;;;8.70;99.90;;;;;;4990857;28;20221;-79
2023/01/12 08:45:07;;;;;;;10.33;9.63;;;8.70;99.90;;;;;;4991071;28;20669;-78
2023/01/12 08:47:36;;;;;;;10.87;9.87;;;8.80;99.90;;;;;;4991470;28;20201;-79
2023/01/12 08:50:04;;;;;;;10.50;9.70;;;8.80;99.90;;;;;;5001050;28;20194;-77
2023/01/12 08:52:31;;;;;;;10.67;9.90;;;8.90;99.90;;;;;;4996202;28;20268;-79
2023/01/12 08:54:58;;;;;;;10.87;9.90;;;8.90;99.90;;;;;;4987739;28;20210;-79
2023/01/12 08:57:25;;;;;;;11.00;10.10;;;8.90;99.90;;;;;;4987998;28;20694;-80
2023/01/12 08:59:52;;;;;;;10.70;9.87;;;8.90;99.90;;;;;;4983947;28;20197;-80
2023/01/12 09:02:19;;;;;;;10.70;9.90;;;8.90;99.90;;;;;;4989140;28;20228;-80
2023/01/12 09:04:48;;;;;;;10.90;10.10;;;9.00;99.90;;;;;;4985485;28;20296;-81
2023/01/12 09:07:15;;;;;;;10.60;9.90;;;9.00;99.90;;;;;;4979186;28;20202;-81
2023/01/12 09:09:42;;;;;;;10.57;9.83;;;9.00;99.90;;;;;;4982503;28;20212;-80
2023/01/12 09:12:09;;;;;;;10.77;9.97;;;9.00;99.90;;;;;;4986485;28;20236;-80
2023/01/12 09:14:37;;;;;;;10.00;9.40;;;9.00;99.90;;;;;;4984283;28;20228;-81
2023/01/12 09:17:05;;;;;;;10.70;10.00;;;9.00;99.90;;;;;;4983151;28;20297;-81
2023/01/12 09:19:32;;;;;;;11.03;10.10;;;9.00;99.90;;;;;;4986299;28;20628;-80
2023/01/12 09:22:00;;;;;;;11.20;10.30;;;9.00;99.90;;;;;;4984300;28;20229;-81
2023/01/12 09:24:27;;;;;;;12.07;10.93;;;9.10;99.90;;;;;;4984089;28;20197;-81
2023/01/12 09:26:53;;;;;;;11.00;10.30;;;9.10;99.90;;;;;;4983791;28;20572;-80
2023/01/12 09:29:20;;;;;;;10.43;9.67;;;9.10;99.90;;;;;;4986919;28;20197;-79
2023/01/12 09:31:47;;;;;;;10.20;9.50;;;9.10;99.90;;;;;;4984554;28;20243;-80
2023/01/12 09:34:14;;;;;;;10.00;9.40;;;9.20;99.90;;;;;;4980836;28;20221;-80
2023/01/12 09:36:41;;;;;;;11.03;10.13;;;9.20;99.90;;;;;;4982016;28;20643;-80
2023/01/12 09:39:15;;;;;;;9.97;9.37;;;9.20;99.90;;;;;;4977288;28;20214;-81
2023/01/12 09:47:26;;;;;;;10.90;10.10;;;9.20;99.90;;;;;;4974050;28;20279;-80
2023/01/12 09:49:57;;;;;;;10.10;9.40;;;9.20;99.90;;;;;;4975106;28;20213;-80
2023/01/12 09:52:30;;;;;;;10.30;9.60;;;9.20;99.90;;;;;;4974817;28;20776;-81
2023/01/12 09:54:58;;;;;;;10.17;9.37;;;9.20;99.90;;;;;;4976024;28;20769;-81
2023/01/12 09:57:54;;;;;;;10.80;9.93;;;9.20;99.90;;;;;;4977878;28;20194;-81
2023/01/12 10:00:21;;;;;;;10.67;9.87;;;9.10;99.90;;;;;;4977944;28;20224;-81
2023/01/12 10:02:53;;;;;;;9.80;9.10;;;9.10;99.90;;;;;;4978245;28;20694;-81
2023/01/12 10:05:37;;;;;;;10.00;9.30;;;9.10;99.90;;;;;;4979080;28;20198;-80
2023/01/12 10:08:04;;;;;;;9.80;9.20;;;9.10;99.90;;;;;;4988496;28;20237;-80
2023/01/12 10:10:32;;;;;;;10.20;9.40;;;9.20;99.90;;;;;;4987296;28;20202;-81
2023/01/12 10:13:02;;;;;;;10.63;9.83;;;9.20;99.90;;;;;;4988054;28;20194;-81
2023/01/12 10:15:38;;;;;;;9.73;8.93;;;9.20;99.90;;;;;;4982295;28;20424;-81
2023/01/12 10:18:11;;;;;;;10.00;9.00;;;9.30;99.90;;;;;;4989581;28;20197;-81
2023/01/12 10:20:41;;;;;;;10.03;9.20;;;9.30;99.90;;;;;;4979148;28;20694;-81
2023/01/12 10:23:13;;;;;;;9.80;8.90;;;9.40;99.90;;;;;;4988073;28;20211;-81
2023/01/12 10:25:44;;;;;;;10.40;9.27;;;9.40;99.90;;;;;;4980018;28;20698;-80
2023/01/12 10:28:17;;;;;;;10.20;9.33;;;9.40;99.90;;;;;;4986601;28;20670;-80
2023/01/12 10:30:44;;;;;;;10.23;9.53;;;9.40;99.90;;;;;;4981321;28;20222;-80
2023/01/12 10:33:14;;;;;;;10.50;9.60;;;9.40;99.90;;;;;;4987677;28;20206;-82
2023/01/12 10:35:49;;;;;;;9.60;9.00;;;9.50;99.90;;;;;;4984826;28;20288;-80
2023/01/12 10:38:22;;;;;;;9.70;8.90;;;9.50;99.90;;;;;;4993599;28;20197;-84
2023/01/12 10:41:12;;;;;;;9.63;9.03;;;9.50;99.90;;;;;;4980276;28;20222;-83
2023/01/12 10:43:40;;;;;;;10.00;9.20;;;9.60;99.90;;;;;;4983779;28;20202;-79
2023/01/12 10:46:13;;;;;;;9.57;8.97;;;9.60;99.90;;;;;;4986829;28;20650;-81
2023/01/12 10:48:42;;;;;;;10.40;9.50;;;9.70;99.90;;;;;;4984469;28;20391;-80
2023/01/12 10:51:24;;;;;;;9.60;8.90;;;9.70;99.90;;;;;;4980116;28;20229;-80
2023/01/12 10:53:55;;;;;;;9.80;9.10;;;9.80;99.90;;;;;;4980249;28;20725;-79
2023/01/12 10:56:30;;;;;;;9.87;9.17;;;9.90;99.90;;;;;;4986947;28;20295;-80
2023/01/12 10:59:01;;;;;;;9.83;9.13;;;9.90;99.90;;;;;;4982127;28;20252;-80
2023/01/12 11:01:46;;;;;;;10.23;9.53;;;9.90;99.90;;;;;;4976363;28;20236;-79
2023/01/12 11:04:14;;;;;;;9.07;8.57;;;10.00;99.90;;;;;;4985544;28;20201;-80
2023/01/12 11:06:46;;;;;;;9.73;9.10;;;10.00;99.90;;;;;;4980351;28;20249;-80
2023/01/12 11:09:21;;;;;;;9.80;9.20;;;10.00;99.90;;;;;;4984561;28;20225;-79
2023/01/12 11:11:54;;;;;;;9.90;9.00;;;10.10;99.90;;;;;;4981944;28;20280;-80
2023/01/12 11:14:26;;;;;;;9.43;8.73;;;10.00;99.90;;;;;;4982349;28;20271;-79
2023/01/12 11:16:53;;;;;;;9.37;8.57;;;10.00;99.90;;;;;;4983033;28;20281;-79
2023/01/12 11:19:23;;;;;;;9.40;8.70;;;10.10;99.90;;;;;;4985296;28;20202;-79
2023/01/12 11:21:55;;;;;;;9.40;8.90;;;10.10;99.90;;;;;;4987762;28;20240;-81
2023/01/12 11:24:32;;;;;;;10.10;9.30;;;10.20;99.90;;;;;;4986374;28;20210;-81
2023/01/12 11:27:08;;;;;;;10.13;9.47;;;10.20;99.90;;;;;;4986556;28;20289;-81
2023/01/12 11:29:41;;;;;;;10.33;9.63;;;10.30;99.90;;;;;;4984499;28;20270;-81
2023/01/12 11:32:15;;;;;;;9.90;9.30;;;10.40;99.90;;;;;;4987215;28;20238;-81
2023/01/12 11:34:55;;;;;;;9.87;9.27;;;10.40;99.90;;;;;;4985046;28;20223;-81
2023/01/12 11:37:22;;;;;;;9.60;9.00;;;10.50;99.90;;;;;;4988152;28;20301;-80
2023/01/12 11:39:53;;;;;;;9.80;9.10;;;10.60;99.90;;;;;;4985448;28;20266;-81
2023/01/12 11:45:37;;;;;;;8.93;8.43;;;10.60;99.90;;;;;;4943859;28;20210;-81
2023/01/12 11:48:14;;;;;;;9.70;9.10;;;10.60;99.90;;;;;;4950836;28;20204;-81
2023/01/12 11:50:43;;;;;;;9.87;9.07;;;10.50;99.90;;;;;;4976922;28;20285;-80
2023/01/12 11:53:18;;;;;;;9.40;8.90;;;10.50;99.90;;;;;;4983182;28;20263;-81
2023/01/12 11:56:01;;;;;;;9.63;8.93;;;10.40;99.90;;;;;;4983723;28;20246;-80
2023/01/12 11:58:35;;;;;;;9.50;8.80;;;10.40;99.90;;;;;;4994429;28;20202;-81
2023/01/12 12:01:10;;;;;;;9.23;8.73;;;10.40;99.90;;;;;;4984068;28;20234;-81
2023/01/12 12:03:54;;;;;;;9.30;8.70;;;10.40;99.90;;;;;;4990475;28;20249;-80
2023/01/12 12:06:43;;;;;;;9.67;9.07;;;10.40;99.90;;;;;;4985734;28;20211;-80
2023/01/12 12:09:28;;;;;;;10.00;9.40;;;10.50;99.90;;;;;;4985804;28;20214;-80
2023/01/12 12:11:59;;;;;;;9.97;9.27;;;10.50;99.90;;;;;;4984801;28;20219;-81
2023/01/12 12:14:40;;;;;;;9.87;9.27;;;10.50;99.90;;;;;;4987817;28;20260;-81
2023/01/12 12:17:13;;;;;;;10.07;9.40;;;10.50;99.90;;;;;;4984996;28;20195;-80
2023/01/12 12:19:47;;;;;;;10.30;9.70;;;10.50;99.90;;;;;;4983565;28;20625;-81
2023/01/12 12:22:25;;;;;;;9.80;9.30;;;10.50;99.90;;;;;;4985849;28;20309;-80
2023/01/12 12:25:08;;;;;;;10.40;9.70;;;10.50;99.90;;;;;;4984959;28;20192;-80
2023/01/12 12:27:55;;;;;;;10.70;9.90;;;10.50;99.90;;;;;;4981654;28;20208;-81
2023/01/12 12:30:59;;;;;;;10.13;9.63;;;10.40;99.90;;;;;;4999722;28;20265;-80
2023/01/12 12:33:56;;;;;;;10.40;9.63;;;10.50;99.90;;;;;;4976431;28;20282;-81
2023/01/12 12:36:29;;;;;;;10.27;9.67;;;10.50;99.90;;;;;;4982443;28;20277;-80
2023/01/12 12:39:32;;;;;;;9.83;9.30;;;10.50;99.90;;;;;;4985388;28;20261;-80
2023/01/12 12:45:17;;;;;;;10.27;9.67;;;10.40;99.90;;;;;;4984819;28;20188;-80
2023/01/12 12:48:00;;;;;;;10.33;9.63;;;10.40;99.90;;;;;;4982788;28;20235;-79
2023/01/12 12:50:30;;;;;;;9.33;8.63;;;10.50;99.90;;;;;;4981094;28;20259;-80
2023/01/12 12:53:13;;;;;;;9.33;8.83;;;10.50;99.90;;;;;;4976433;28;20670;-80
2023/01/12 12:55:40;;;;;;;9.97;9.17;;;10.50;99.90;;;;;;4978094;28;20271;-81
2023/01/12 12:58:29;;;;;;;9.80;8.90;;;10.60;99.90;;;;;;4986247;28;20289;-80
2023/01/12 13:01:43;;;;;;;9.50;8.80;;;10.60;99.90;;;;;;4978920;28;20231;-80
2023/01/12 13:04:13;;;;;;;9.20;8.70;;;10.70;99.90;;;;;;4973870;28;20210;-80
2023/01/12 13:06:44;;;;;;;9.70;9.10;;;10.80;99.90;;;;;;4978877;28;20226;-79
2023/01/12 13:09:35;;;;;;;8.90;8.40;;;10.80;99.90;;;;;;4985323;28;20199;-80
2023/01/12 13:12:21;;;;;;;9.00;8.50;;;10.80;99.90;;;;;;4984182;28;20277;-79
2023/01/12 13:15:19;;;;;;;8.97;8.40;;;10.80;99.90;;;;;;4985475;28;20273;-80
2023/01/12 13:17:48;;;;;;;9.47;8.87;;;10.80;99.90;;;;;;4985048;28;20202;-79
2023/01/12 13:20:50;;;;;;;8.90;8.40;;;10.80;99.90;;;;;;4986633;28;20199;-80
2023/01/12 13:23:42;;;;;;;9.20;8.70;;;10.80;99.90;;;;;;4985868;28;20231;-80
2023/01/12 13:26:36;;;;;;;9.17;8.60;;;10.80;99.90;;;;;;4985178;28;20211;-80
2023/01/12 13:29:41;;;;;;;9.30;8.70;;;10.70;99.90;;;;;;4986026;28;20231;-79
2023/01/12 13:32:45;;;;;;;9.10;8.57;;;10.70;99.90;;;;;;4983988;28;20217;-79
2023/01/12 13:35:45;;;;;;;8.97;8.47;;;10.70;99.90;;;;;;4990486;28;20639;-80
2023/01/12 13:38:19;;;;;;;9.00;8.50;;;10.60;99.90;;;;;;4972391;28;20246;-80
2023/01/12 13:40:46;;;;;;;9.07;8.50;;;10.60;99.90;;;;;;4987984;28;20330;-79
2023/01/12 13:43:20;;;;;;;9.17;8.63;;;10.60;99.90;;;;;;4991730;28;20214;-80
2023/01/12 13:45:52;;;;;;;9.10;8.60;;;10.60;99.90;;;;;;4982989;28;20184;-80
2023/01/12 13:48:20;;;;;;;9.20;8.70;;;10.60;99.90;;;;;;4988825;28;20276;-79
2023/01/12 13:50:50;;;;;;;9.73;9.13;;;10.60;99.90;;;;;;4986354;28;20272;-79
2023/01/12 13:53:24;;;;;;;9.13;8.63;;;10.60;99.90;;;;;;4983625;28;20225;-79
2023/01/12 13:55:59;;;;;;;9.13;8.63;;;10.50;99.90;;;;;;4986286;28;20207;-80
2023/01/12 13:58:27;;;;;;;9.20;8.70;;;10.50;99.90;;;;;;4983019;28;20205;-79
2023/01/12 14:00:59;;;;;;;9.57;8.90;;;10.50;99.90;;;;;;4983034;28;20258;-79
2023/01/12 14:03:58;;;;;;;9.67;9.10;;;10.40;99.90;;;;;;4990221;28;20202;-81
2023/01/12 14:06:35;;;;;;;9.80;9.20;;;10.40;99.90;;;;;;4987638;28;20594;-78
2023/01/12 14:09:13;;;;;;;9.00;8.50;;;10.40;99.90;;;;;;4987129;28;20264;-81
2023/01/12 14:11:59;;;;;;;9.03;8.40;;;10.40;99.90;;;;;;4990070;28;20571;-79
2023/01/12 14:20:15;;;;;;;9.20;8.70;;;10.30;99.90;;;;;;4985264;28;20214;-78
2023/01/12 14:22:41;;;;;;;9.27;8.77;;;10.30;99.90;;;;;;4989015;28;20217;-78
2023/01/12 14:25:24;;;;;;;9.17;8.67;;;10.30;99.90;;;;;;4985571;28;20207;-78
2023/01/12 14:27:53;;;;;;;9.30;8.80;;;10.30;99.90;;;;;;4988318;28;20204;-82
2023/01/12 14:30:20;;;;;;;8.80;8.30;;;10.30;99.90;;;;;;4982074;28;20282;-79
2023/01/12 14:32:48;;;;;;;9.20;8.70;;;10.30;99.90;;;;;;4981508;28;20289;-79
2023/01/12 14:35:18;;;;;;;9.40;8.90;;;10.30;99.90;;;;;;4984351;28;20219;-79
2023/01/12 14:37:49;;;;;;;9.00;8.50;;;10.20;99.90;;;;;;4987443;28;20264;-80
2023/01/12 14:40:28;;;;;;;9.30;8.80;;;10.20;99.90;;;;;;4982633;28;20294;-79
2023/01/12 14:48:41;;;;;;;8.87;8.37;;;10.20;99.90;;;;;;4975346;28;20190;-79
2023/01/12 14:51:19;;;;;;;9.00;8.50;;;10.10;99.90;;;;;;4981947;28;20220;-78
2023/01/12 14:53:47;;;;;;;8.90;8.40;;;10.20;99.90;;;;;;4982682;28;20194;-79
2023/01/12 14:56:22;;;;;;;9.37;8.77;;;10.10;99.90;;;;;;4984448;28;20216;-79
2023/01/12 14:58:49;;;;;;;9.13;8.63;;;10.10;99.90;;;;;;4983991;28;20201;-80
2023/01/12 15:01:31;;;;;;;9.43;8.83;;;10.10;99.90;;;;;;4984986;28;20609;-81
2023/01/12 15:03:58;;;;;;;8.97;8.47;;;10.10;99.90;;;;;;4984253;28;20547;-79
2023/01/12 15:06:25;;;;;;;9.00;8.50;;;10.00;99.90;;;;;;4980911;28;20193;-80
2023/01/12 15:08:54;;;;;;;8.90;8.40;;;10.10;99.90;;;;;;4979676;28;20208;-80
2023/01/12 15:11:36;;;;;;;9.10;8.60;;;10.10;99.90;;;;;;4983996;28;20231;-80
2023/01/12 15:14:05;;;;;;;9.40;8.80;;;10.00;99.90;;;;;;4980495;28;20210;-80
2023/01/12 15:27:30;;;;;;;10.20;9.40;;;9.90;99.90;;;;;;4975966;28;20277;-81
2023/01/12 15:30:01;;;;;;;9.63;9.03;;;9.90;99.90;;;;;;4981336;28;20568;-81
2023/01/12 15:32:33;;;;;;;10.53;9.83;;;9.90;99.90;;;;;;4987106;28;20629;-81
2023/01/12 15:35:01;;;;;;;9.50;8.93;;;9.90;99.90;;;;;;4978837;28;20205;-81
2023/01/12 15:37:30;;;;;;;9.80;9.20;;;9.90;99.90;;;;;;4978599;28;20224;-80
2023/01/12 15:39:58;;;;;;;9.30;8.70;;;9.90;99.90;;;;;;4983458;28;20669;-80
2023/01/12 15:42:25;;;;;;;9.10;8.50;;;9.80;99.90;;;;;;4980488;28;20687;-80
2023/01/12 15:44:54;;;;;;;9.27;8.67;;;9.80;99.90;;;;;;4980083;28;20206;-80
2023/01/12 15:47:21;;;;;;;9.50;8.90;;;9.80;99.90;;;;;;4982611;28;20237;-80
2023/01/12 15:49:50;;;;;;;9.37;8.77;;;9.70;99.90;;;;;;4981971;28;20259;-81
2023/01/12 15:52:20;;;;;;;9.87;9.17;;;9.70;99.90;;;;;;4983454;28;20332;-79
2023/01/12 15:54:47;;;;;;;9.43;8.80;;;9.70;99.90;;;;;;4981436;28;20277;-80
2023/01/12 15:57:14;;;;;;;9.63;8.90;;;9.70;99.90;;;;;;4984243;28;20279;-79
2023/01/12 15:59:42;;;;;;;9.70;9.10;;;9.70;99.90;;;;;;4981887;28;20210;-80
2023/01/12 16:02:25;;;;;;;11.10;10.10;;;9.70;99.90;;;;;;4982667;28;20268;-80
2023/01/12 16:04:52;;;;;;;13.30;12.17;;;9.70;99.90;;;;;;4982038;28;20249;-80
2023/01/12 16:07:19;;;;;;;12.40;11.50;;;9.70;99.90;;;;;;4985039;28;20205;-81
2023/01/12 16:09:48;;;;;;;10.87;10.07;;;9.70;99.90;;;;;;4982846;28;20197;-80
2023/01/12 16:12:15;;;;;;;9.67;9.07;;;9.60;99.90;;;;;;4979514;28;20222;-81
2023/01/12 16:14:42;;;;;;;9.83;9.07;;;9.70;99.90;;;;;;4980416;28;20202;-81
2023/01/12 16:17:11;;;;;;;9.77;9.10;;;9.60;99.90;;;;;;4979918;28;20749;-78
2023/01/12 16:19:40;;;;;;;9.57;8.90;;;9.60;99.90;;;;;;4971934;28;20193;-80
2023/01/12 16:22:12;;;;;;;9.80;9.10;;;9.60;99.90;;;;;;4982916;28;20271;-81
2023/01/12 16:24:39;;;;;;;10.30;9.60;;;9.60;99.90;;;;;;4982898;28;20667;-81
2023/01/12 16:27:06;;;;;;;10.30;9.60;;;9.60;99.90;;;;;;4984614;28;20193;-81
2023/01/12 16:29:33;;;;;;;10.33;9.47;;;9.50;99.90;;;;;;4978862;28;20233;-80
2023/01/12 16:32:00;;;;;;;10.30;9.50;;;9.50;99.90;;;;;;4969516;28;20277;-78
2023/01/12 16:34:27;;;;;;;10.10;9.40;;;9.40;99.90;;;;;;4970000;28;20629;-78
2023/01/12 16:36:55;;;;;;;10.23;9.43;;;9.40;99.90;;;;;;4979659;28;20701;-79
2023/01/12 16:39:23;;;;;;;9.57;8.97;;;9.40;99.90;;;;;;4983140;28;20209;-79
2023/01/12 16:41:52;;;;;;;10.00;9.30;;;9.40;99.90;;;;;;4984888;28;20311;-82
2023/01/12 16:44:18;;;;;;;9.73;9.13;;;9.40;99.90;;;;;;4982812;28;20206;-81
2023/01/12 16:46:47;;;;;;;10.20;9.60;;;9.40;99.90;;;;;;4984735;28;20268;-81
2023/01/12 16:49:14;;;;;;;9.97;9.37;;;9.40;99.90;;;;;;4982946;28;20233;-80
2023/01/12 16:51:41;;;;;;;10.13;9.50;;;9.30;99.90;;;;;;4984044;28;20240;-79
2023/01/12 16:54:09;;;;;;;9.90;9.17;;;9.40;99.90;;;;;;4986456;28;20252;-78
2023/01/12 16:56:36;;;;;;;10.17;9.47;;;9.30;99.90;;;;;;4986699;28;20205;-79